createdAt,value
2018-02-21T00:01:07.205Z,95.40
2018-02-21T00:03:35.070Z,95.00
2018-02-21T00:06:02.617Z,95.40
2018-02-21T00:08:29.271Z,95.30
2018-02-21T00:10:55.935Z,95.70
2018-02-21T00:13:23.562Z,96.00
2018-02-21T00:15:50.682Z,95.90
2018-02-21T00:18:17.611Z,95.80
2018-02-21T00:20:44.315Z,95.30
2018-02-21T00:23:11.029Z,95.30
2018-02-21T00:25:38.179Z,95.40
2018-02-21T00:28:04.838Z,95.20
2018-02-21T00:30:32.029Z,95.30
2018-02-21T00:33:11.127Z,95.70
2018-02-21T00:35:40.330Z,95.50
2018-02-21T00:38:07.055Z,94.70
2018-02-21T00:40:33.924Z,94.20
2018-02-21T00:43:00.667Z,94.60
2018-02-21T00:45:27.443Z,95.10
2018-02-21T00:47:54.199Z,95.80
2018-02-21T00:50:21.991Z,95.40
2018-02-21T00:52:48.778Z,95.40
2018-02-21T00:55:15.460Z,95.00
2018-02-21T00:57:42.944Z,94.20
2018-02-21T01:00:10.678Z,94.00
2018-02-21T01:02:37.403Z,93.90
2018-02-21T01:05:04.227Z,94.60
2018-02-21T01:07:31.227Z,95.40
2018-02-21T01:09:57.954Z,95.50
2018-02-21T01:12:25.466Z,95.70
2018-02-21T01:14:52.924Z,95.40
2018-02-21T01:17:21.276Z,95.40
2018-02-21T01:19:48.429Z,95.30
2018-02-21T01:22:15.191Z,95.20
2018-02-21T01:24:42.143Z,95.10
2018-02-21T01:27:08.847Z,95.80
2018-02-21T01:29:36.114Z,94.90
2018-02-21T01:32:02.765Z,95.50
2018-02-21T01:34:29.568Z,95.60
2018-02-21T01:36:56.268Z,95.60
2018-02-21T01:39:23.246Z,95.50
2018-02-21T01:41:50.036Z,95.40
2018-02-21T01:44:16.996Z,95.60
2018-02-21T01:46:43.776Z,95.60
2018-02-21T01:49:10.731Z,95.50
2018-02-21T01:51:38.294Z,95.20
2018-02-21T01:54:05.662Z,94.40
2018-02-21T01:56:32.301Z,94.80
2018-02-21T01:58:59.105Z,95.50
2018-02-21T02:01:26.587Z,95.70
2018-02-21T02:03:53.992Z,95.80
2018-02-21T02:06:20.725Z,95.80
2018-02-21T02:08:47.493Z,95.50
2018-02-21T02:11:14.221Z,95.60
2018-02-21T02:13:41.703Z,96.10
2018-02-21T02:16:09.558Z,95.90
2018-02-21T02:18:37.982Z,96.00
2018-02-21T02:21:04.656Z,96.00
2018-02-21T02:23:32.261Z,95.60
2018-02-21T02:26:00.443Z,95.60
2018-02-21T02:28:28.948Z,95.70
2018-02-21T02:30:55.754Z,95.70
2018-02-21T02:33:24.680Z,95.70
2018-02-21T02:35:52.178Z,95.80
2018-02-21T02:38:31.508Z,95.50
2018-02-21T02:40:58.499Z,95.40
2018-02-21T02:43:25.433Z,95.40
2018-02-21T02:45:52.188Z,95.20
2018-02-21T02:48:18.973Z,95.70
2018-02-21T02:50:45.739Z,95.70
2018-02-21T02:53:12.687Z,95.50
2018-02-21T02:55:39.484Z,95.40
2018-02-21T02:58:06.232Z,95.60
2018-02-21T03:00:33.739Z,95.40
2018-02-21T03:03:01.896Z,95.40
2018-02-21T03:05:28.863Z,95.60
2018-02-21T03:07:55.592Z,95.50
2018-02-21T03:10:22.428Z,95.50
2018-02-21T03:12:49.406Z,95.20
2018-02-21T03:15:16.369Z,95.10
2018-02-21T03:17:43.189Z,95.10
2018-02-21T03:20:10.566Z,95.20
2018-02-21T03:22:37.263Z,95.20
2018-02-21T03:25:04.011Z,95.70
2018-02-21T03:27:30.759Z,95.90
2018-02-21T03:29:57.699Z,95.70
2018-02-21T03:32:24.832Z,95.50
2018-02-21T03:34:51.486Z,95.60
2018-02-21T03:37:18.670Z,95.80
2018-02-21T03:39:45.627Z,95.70
2018-02-21T03:42:13.114Z,95.50
2018-02-21T03:44:40.649Z,95.60
2018-02-21T03:47:08.892Z,95.60
2018-02-21T03:49:36.967Z,95.60
2018-02-21T03:52:03.946Z,95.50
2018-02-21T03:54:31.431Z,95.70
2018-02-21T03:56:58.186Z,95.70
2018-02-21T03:59:25.903Z,95.40
2018-02-21T04:01:52.728Z,95.40
2018-02-21T04:04:19.773Z,95.50
2018-02-21T04:06:46.408Z,95.70
2018-02-21T04:09:13.982Z,95.80
2018-02-21T04:11:40.695Z,95.80
2018-02-21T04:14:07.337Z,95.70
2018-02-21T04:16:34.404Z,95.30
2018-02-21T04:19:02.029Z,95.10
2018-02-21T04:21:28.786Z,95.10
2018-02-21T04:23:55.986Z,95.30
2018-02-21T04:26:22.723Z,94.90
2018-02-21T04:28:49.726Z,95.20
2018-02-21T04:31:16.475Z,95.70
2018-02-21T04:33:44.526Z,95.70
2018-02-21T04:36:11.580Z,95.50
2018-02-21T04:38:38.550Z,95.50
2018-02-21T04:41:05.836Z,95.90
2018-02-21T04:43:33.359Z,95.70
2018-02-21T04:46:00.401Z,95.60
2018-02-21T04:48:27.702Z,95.80
2018-02-21T04:50:54.500Z,95.50
2018-02-21T04:53:22.680Z,95.20
2018-02-21T04:58:56.196Z,95.50
2018-02-21T05:01:23.045Z,95.80
2018-02-21T05:03:51.124Z,95.80
2018-02-21T05:06:18.472Z,95.50
2018-02-21T05:08:45.521Z,95.70
2018-02-21T05:11:12.410Z,95.60
2018-02-21T05:13:39.515Z,95.50
2018-02-21T05:16:07.130Z,95.80
2018-02-21T05:18:34.543Z,95.90
2018-02-21T05:21:02.448Z,95.50
2018-02-21T05:23:29.380Z,95.50
2018-02-21T05:25:56.036Z,95.20
2018-02-21T05:28:23.394Z,95.20
2018-02-21T05:30:50.856Z,96.00
2018-02-21T05:33:18.411Z,95.70
2018-02-21T05:35:45.394Z,95.60
2018-02-21T05:38:12.527Z,95.50
2018-02-21T05:40:39.581Z,95.50
2018-02-21T05:43:07.252Z,95.40
2018-02-21T05:45:33.912Z,94.90
2018-02-21T05:48:00.793Z,95.30
2018-02-21T05:50:27.561Z,95.60
2018-02-21T05:52:54.977Z,95.80
2018-02-21T05:55:21.660Z,95.80
2018-02-21T05:57:49.176Z,95.50
2018-02-21T06:00:15.928Z,95.40
2018-02-21T06:02:42.634Z,95.50
2018-02-21T06:05:09.441Z,95.20
2018-02-21T06:07:37.037Z,95.30
2018-02-21T06:10:04.632Z,95.50
2018-02-21T06:12:32.962Z,95.50
2018-02-21T06:14:59.955Z,95.50
2018-02-21T06:17:26.908Z,95.40
2018-02-21T06:19:54.550Z,95.60
2018-02-21T06:22:22.733Z,95.50
2018-02-21T06:24:50.506Z,95.40
2018-02-21T06:27:17.772Z,95.40
2018-02-21T06:29:44.780Z,95.30
2018-02-21T06:32:11.881Z,95.50
2018-02-21T06:34:39.543Z,95.30
2018-02-21T06:37:07.056Z,95.20
2018-02-21T06:39:33.965Z,95.20
2018-02-21T06:42:01.505Z,95.10
2018-02-21T06:44:29.525Z,95.20
2018-02-21T06:46:56.140Z,95.10
2018-02-21T06:49:23.444Z,95.40
2018-02-21T06:51:50.101Z,95.50
2018-02-21T06:54:16.899Z,95.50
2018-02-21T06:56:43.754Z,95.40
2018-02-21T06:59:10.743Z,95.30
2018-02-21T07:01:37.461Z,95.20
2018-02-21T07:04:06.045Z,95.00
2018-02-21T07:06:32.892Z,95.10
2018-02-21T07:09:00.050Z,95.20
2018-02-21T07:11:26.896Z,94.70
2018-02-21T07:13:53.643Z,94.80
2018-02-21T07:16:21.316Z,94.70
2018-02-21T07:18:48.161Z,94.30
2018-02-21T07:21:15.318Z,94.20
2018-02-21T07:23:42.477Z,94.50
2018-02-21T07:26:09.146Z,95.00
2018-02-21T07:28:36.069Z,95.10
2018-02-21T07:31:02.928Z,94.60
2018-02-21T07:33:29.670Z,93.90
2018-02-21T07:35:56.315Z,93.20
2018-02-21T07:38:23.392Z,93.00
2018-02-21T07:40:50.315Z,94.50
2018-02-21T07:43:17.222Z,92.90
2018-02-21T07:45:44.016Z,93.80
2018-02-21T07:48:10.654Z,93.90
2018-02-21T07:50:37.364Z,94.10
2018-02-21T07:53:04.063Z,94.20
2018-02-21T07:55:30.692Z,94.10
2018-02-21T07:57:58.125Z,94.30
2018-02-21T08:00:26.041Z,93.60
2018-02-21T08:02:52.723Z,93.60
2018-02-21T08:05:19.628Z,94.20
2018-02-21T08:07:46.306Z,94.60
2018-02-21T08:10:13.237Z,94.20
2018-02-21T08:12:40.368Z,94.20
2018-02-21T08:15:07.208Z,94.10
2018-02-21T08:17:34.879Z,92.90
2018-02-21T08:20:01.628Z,93.00
2018-02-21T08:22:28.368Z,93.00
2018-02-21T08:24:55.428Z,89.60
2018-02-21T08:27:22.274Z,90.80
2018-02-21T08:29:50.081Z,87.50
2018-02-21T08:32:17.096Z,91.40
2018-02-21T08:34:43.756Z,88.40
2018-02-21T08:37:10.534Z,90.70
2018-02-21T08:39:37.231Z,91.00
2018-02-21T08:42:03.906Z,90.90
2018-02-21T08:44:30.623Z,91.30
2018-02-21T08:46:57.576Z,88.50
2018-02-21T08:49:24.553Z,89.40
2018-02-21T08:51:51.321Z,90.40
2018-02-21T08:54:18.073Z,89.00
2018-02-21T08:56:44.774Z,85.60
2018-02-21T08:59:11.512Z,84.50
2018-02-21T09:01:38.237Z,83.30
2018-02-21T09:04:05.905Z,83.30
2018-02-21T09:06:33.390Z,82.60
2018-02-21T09:09:00.080Z,82.50
2018-02-21T09:11:26.713Z,81.30
2018-02-21T09:13:53.576Z,79.20
2018-02-21T09:16:20.787Z,81.60
2018-02-21T09:18:47.565Z,80.20
2018-02-21T09:21:14.278Z,78.90
2018-02-21T09:23:42.354Z,76.90
2018-02-21T09:26:09.319Z,75.30
2018-02-21T09:28:36.426Z,74.80
2018-02-21T09:31:03.918Z,74.30
2018-02-21T09:33:30.640Z,74.20
2018-02-21T09:35:58.331Z,71.80
2018-02-21T09:38:25.386Z,72.50
2018-02-21T09:40:52.062Z,69.10
2018-02-21T09:43:19.572Z,71.30
2018-02-21T09:45:47.260Z,72.90
2018-02-21T09:48:14.196Z,72.90
2018-02-21T09:50:41.649Z,72.10
2018-02-21T09:53:08.261Z,72.00
2018-02-21T09:55:35.057Z,68.40
2018-02-21T09:58:01.772Z,72.10
2018-02-21T10:00:28.454Z,75.90
2018-02-21T10:02:55.118Z,70.20
2018-02-21T10:05:21.824Z,72.00
2018-02-21T10:07:48.492Z,66.50
2018-02-21T10:10:15.113Z,66.40
2018-02-21T10:12:42.525Z,61.70
2018-02-21T10:15:09.307Z,61.60
2018-02-21T10:17:37.931Z,66.90
2018-02-21T10:20:04.953Z,66.90
2018-02-21T10:22:32.447Z,68.10
2018-02-21T10:24:59.295Z,68.10
2018-02-21T10:27:26.349Z,66.80
2018-02-21T10:29:53.095Z,66.50
2018-02-21T10:32:19.768Z,70.20
2018-02-21T10:34:46.456Z,72.80
2018-02-21T10:37:13.910Z,74.30
2018-02-21T10:39:40.697Z,74.40
2018-02-21T10:42:07.542Z,77.40
2018-02-21T10:44:34.680Z,75.30
2018-02-21T10:47:02.047Z,75.50
2018-02-21T10:49:28.916Z,75.50
2018-02-21T10:51:55.697Z,73.90
2018-02-21T10:54:23.015Z,71.10
2018-02-21T10:56:49.760Z,74.50
2018-02-21T10:59:16.715Z,68.70
2018-02-21T11:01:44.188Z,70.40
2018-02-21T11:04:11.232Z,67.80
2018-02-21T11:06:37.919Z,70.20
2018-02-21T11:09:05.655Z,66.60
2018-02-21T11:11:32.952Z,66.50
2018-02-21T11:13:59.823Z,67.10
2018-02-21T11:16:27.183Z,64.90
2018-02-21T11:18:54.629Z,65.80
2018-02-21T11:21:21.523Z,65.70
2018-02-21T11:23:49.299Z,66.00
2018-02-21T11:26:16.355Z,66.40
2018-02-21T11:28:43.296Z,68.00
2018-02-21T11:31:09.921Z,72.70
2018-02-21T11:33:37.285Z,66.80
2018-02-21T11:36:05.049Z,68.70
2018-02-21T11:38:31.778Z,68.80
2018-02-21T11:40:59.173Z,71.70
2018-02-21T11:43:26.713Z,70.30
2018-02-21T11:45:54.818Z,70.90
2018-02-21T11:48:21.565Z,70.80
2018-02-21T11:50:48.823Z,68.70
2018-02-21T11:53:15.471Z,70.50
2018-02-21T11:55:42.292Z,68.70
2018-02-21T11:58:10.145Z,71.20
2018-02-21T12:00:36.767Z,71.10
2018-02-21T12:03:03.477Z,71.10
2018-02-21T12:05:30.258Z,71.50
2018-02-21T12:07:56.944Z,75.10
2018-02-21T12:10:24.428Z,72.70
2018-02-21T12:12:52.083Z,72.60
2018-02-21T12:15:19.152Z,73.10
2018-02-21T12:17:46.409Z,72.30
2018-02-21T12:20:13.668Z,69.90
2018-02-21T12:22:41.303Z,70.70
2018-02-21T12:25:08.689Z,71.00
2018-02-21T12:27:35.631Z,70.90
2018-02-21T12:30:02.798Z,73.40
2018-02-21T12:32:31.304Z,74.80
2018-02-21T12:34:58.093Z,74.00
2018-02-21T12:37:24.816Z,73.80
2018-02-21T12:39:51.583Z,72.30
2018-02-21T12:42:19.034Z,71.40
2018-02-21T12:44:45.677Z,72.90
2018-02-21T12:47:12.315Z,72.60
2018-02-21T12:49:39.011Z,70.90
2018-02-21T12:52:05.941Z,71.90
2018-02-21T12:54:33.704Z,72.40
2018-02-21T12:57:00.353Z,72.50
2018-02-21T12:59:27.629Z,74.20
2018-02-21T13:01:55.481Z,73.20
2018-02-21T13:04:23.252Z,71.90
2018-02-21T13:06:50.649Z,74.30
2018-02-21T13:09:17.357Z,74.20
2018-02-21T13:11:43.992Z,73.90
2018-02-21T13:14:11.087Z,73.40
2018-02-21T13:16:38.092Z,73.10
2018-02-21T13:19:05.607Z,74.00
2018-02-21T13:21:32.352Z,73.90
2018-02-21T13:24:00.429Z,72.90
2018-02-21T13:26:27.044Z,72.80
2018-02-21T13:28:53.982Z,74.10
2018-02-21T13:31:20.687Z,73.70
2018-02-21T13:33:47.651Z,73.30
2018-02-21T13:36:14.556Z,73.30
2018-02-21T13:38:41.317Z,72.80
2018-02-21T13:41:08.292Z,72.20
2018-02-21T13:43:35.112Z,72.90
2018-02-21T13:46:03.089Z,74.70
2018-02-21T13:48:30.100Z,74.60
2018-02-21T13:50:57.604Z,73.90
2018-02-21T13:53:25.244Z,73.80
2018-02-21T13:55:54.270Z,74.20
2018-02-21T13:58:21.195Z,74.20
2018-02-21T14:00:48.009Z,73.30
2018-02-21T14:03:15.439Z,74.70
2018-02-21T14:05:42.280Z,74.70
2018-02-21T14:08:09.331Z,76.10
2018-02-21T14:10:36.269Z,76.70
2018-02-21T14:13:03.414Z,77.10
2018-02-21T14:15:30.483Z,77.10
2018-02-21T14:17:57.848Z,77.10
2018-02-21T14:20:26.047Z,77.20
2018-02-21T14:22:53.147Z,76.60
2018-02-21T14:25:19.992Z,78.00
2018-02-21T14:27:47.905Z,75.80
2018-02-21T14:30:14.832Z,78.10
2018-02-21T14:32:41.705Z,76.40
2018-02-21T14:35:08.450Z,78.20
2018-02-21T14:37:36.019Z,77.10
2018-02-21T14:40:02.736Z,77.20
2018-02-21T14:42:30.227Z,80.20
2018-02-21T14:44:57.055Z,80.10
2018-02-21T14:47:24.535Z,78.40
2018-02-21T14:49:52.310Z,78.30
2018-02-21T14:52:19.459Z,78.50
2018-02-21T14:54:46.195Z,79.90
2018-02-21T14:57:12.941Z,80.50
2018-02-21T14:59:42.634Z,78.30
2018-02-21T15:02:10.941Z,79.20
2018-02-21T15:04:37.956Z,79.20
2018-02-21T15:07:04.955Z,79.10
2018-02-21T15:09:31.650Z,79.50
2018-02-21T15:11:59.152Z,80.40
2018-02-21T15:14:26.013Z,82.10
2018-02-21T15:16:52.758Z,81.60
2018-02-21T15:19:19.610Z,82.30
2018-02-21T15:21:46.660Z,83.60
2018-02-21T15:24:14.635Z,86.30
2018-02-21T15:26:42.506Z,84.00
2018-02-21T15:29:09.744Z,84.00
2018-02-21T15:31:36.629Z,86.10
2018-02-21T15:34:03.368Z,85.60
2018-02-21T15:36:30.310Z,87.10
2018-02-21T15:38:58.074Z,89.20
2018-02-21T15:41:25.566Z,90.50
2018-02-21T15:43:52.970Z,90.60
2018-02-21T15:46:20.574Z,91.50
2018-02-21T15:48:47.296Z,91.40
2018-02-21T15:51:14.162Z,91.60
2018-02-21T15:53:41.831Z,91.70
2018-02-21T15:56:08.575Z,92.00
2018-02-21T15:58:35.923Z,92.20
2018-02-21T16:01:02.783Z,92.40
2018-02-21T16:03:29.636Z,92.10
2018-02-21T16:05:56.979Z,92.40
2018-02-21T16:08:24.768Z,93.00
2018-02-21T16:10:51.612Z,92.90
2018-02-21T16:13:18.462Z,93.10
2018-02-21T16:15:45.191Z,93.10
2018-02-21T16:18:12.262Z,93.50
2018-02-21T16:20:39.092Z,93.80
2018-02-21T16:23:06.268Z,93.70
2018-02-21T16:25:33.292Z,93.90
2018-02-21T16:28:00.271Z,94.30
2018-02-21T16:30:27.222Z,94.40
2018-02-21T16:32:53.965Z,94.40
2018-02-21T16:35:20.711Z,94.30
2018-02-21T16:37:47.888Z,94.40
2018-02-21T16:40:15.138Z,94.80
2018-02-21T16:42:42.655Z,95.10
2018-02-21T16:45:10.462Z,95.20
2018-02-21T16:47:37.719Z,95.10
2018-02-21T16:50:04.571Z,94.90
2018-02-21T16:52:31.516Z,95.00
2018-02-21T16:54:58.265Z,95.10
2018-02-21T16:57:25.320Z,95.00
2018-02-21T16:59:52.094Z,95.30
2018-02-21T17:02:19.937Z,95.40
2018-02-21T17:04:47.052Z,95.30
2018-02-21T17:07:14.965Z,95.60
2018-02-21T17:09:41.803Z,95.50
2018-02-21T17:12:09.075Z,95.30
2018-02-21T17:14:36.184Z,94.80
2018-02-21T17:17:04.200Z,95.10
2018-02-21T17:19:31.431Z,95.00
2018-02-21T17:21:59.204Z,95.60
2018-02-21T17:24:26.591Z,95.60
2018-02-21T17:26:53.641Z,95.70
2018-02-21T17:29:20.910Z,95.70
2018-02-21T17:31:47.953Z,94.90
2018-02-21T17:34:14.903Z,94.20
2018-02-21T17:36:43.083Z,94.10
2018-02-21T17:39:10.645Z,93.60
2018-02-21T17:41:38.261Z,94.30
2018-02-21T17:44:05.104Z,95.10
2018-02-21T17:46:32.013Z,94.60
2018-02-21T17:48:58.758Z,94.60
2018-02-21T17:51:25.493Z,93.60
2018-02-21T17:53:52.131Z,93.10
2018-02-21T17:56:19.693Z,92.90
2018-02-21T17:58:46.723Z,92.90
2018-02-21T18:01:14.336Z,94.20
2018-02-21T18:03:41.475Z,94.40
2018-02-21T18:06:08.435Z,94.30
2018-02-21T18:08:35.163Z,92.90
2018-02-21T18:11:02.652Z,92.50
2018-02-21T18:13:29.347Z,92.50
2018-02-21T18:15:56.136Z,92.80
2018-02-21T18:18:22.779Z,92.90
2018-02-21T18:20:49.426Z,92.90
2018-02-21T18:23:16.307Z,93.60
2018-02-21T18:25:42.954Z,94.10
2018-02-21T18:28:09.968Z,94.20
2018-02-21T18:30:36.909Z,94.60
2018-02-21T18:33:03.573Z,94.80
2018-02-21T18:35:30.642Z,94.60
2018-02-21T18:37:57.281Z,94.90
2018-02-21T18:40:23.993Z,95.20
2018-02-21T18:42:50.911Z,95.70
2018-02-21T18:45:17.777Z,95.60
2018-02-21T18:47:45.298Z,95.00
2018-02-21T18:50:12.300Z,95.10
2018-02-21T18:52:40.200Z,95.30
2018-02-21T18:55:06.940Z,95.30
2018-02-21T18:57:33.792Z,95.70
2018-02-21T19:00:00.439Z,95.60
2018-02-21T19:02:27.440Z,96.00
2018-02-21T19:04:55.056Z,95.90
2018-02-21T19:07:22.004Z,95.40
2018-02-21T19:09:49.163Z,94.90
2018-02-21T19:12:16.725Z,96.00
2018-02-21T19:14:43.576Z,96.00
2018-02-21T19:17:10.308Z,96.50
2018-02-21T19:19:37.084Z,96.40
2018-02-21T19:22:03.815Z,96.00
2018-02-21T19:24:31.072Z,95.70
2018-02-21T19:26:57.843Z,96.00
2018-02-21T19:29:24.868Z,96.00
2018-02-21T19:31:51.522Z,95.70
2018-02-21T19:34:18.222Z,95.80
2018-02-21T19:36:44.903Z,95.50
2018-02-21T19:39:11.861Z,95.70
2018-02-21T19:41:38.703Z,95.50
2018-02-21T19:44:05.323Z,95.10
2018-02-21T19:46:33.118Z,94.70
2018-02-21T19:48:59.813Z,94.70
2018-02-21T19:51:26.519Z,95.50
2018-02-21T19:53:54.005Z,95.40
2018-02-21T19:56:20.680Z,95.30
2018-02-21T19:58:48.173Z,95.30
2018-02-21T20:01:14.855Z,95.00
2018-02-21T20:03:42.082Z,94.90
2018-02-21T20:06:08.932Z,95.40
2018-02-21T20:08:36.076Z,94.80
2018-02-21T20:11:02.930Z,95.10
2018-02-21T20:13:30.724Z,94.50
2018-02-21T20:15:57.654Z,94.50
2018-02-21T20:18:24.612Z,94.50
2018-02-21T20:20:51.351Z,94.50
2018-02-21T20:23:18.080Z,94.90
2018-02-21T20:25:46.278Z,95.50
2018-02-21T20:28:13.025Z,95.40
2018-02-21T20:30:39.776Z,95.50
2018-02-21T20:33:06.822Z,95.50
2018-02-21T20:35:33.543Z,95.70
2018-02-21T20:38:01.108Z,94.80
2018-02-21T20:40:30.637Z,94.70
2018-02-21T20:42:57.398Z,94.70
2018-02-21T20:45:24.414Z,95.10
2018-02-21T20:47:52.008Z,94.60
2018-02-21T20:50:19.881Z,95.20
2018-02-21T20:52:47.140Z,95.00
2018-02-21T20:55:14.823Z,95.20
2018-02-21T20:57:41.936Z,95.20
2018-02-21T21:00:09.756Z,95.20
2018-02-21T21:02:36.489Z,95.20
2018-02-21T21:05:03.971Z,95.00
2018-02-21T21:07:30.661Z,94.90
2018-02-21T21:10:00.222Z,95.30
2018-02-21T21:12:27.003Z,95.30
2018-02-21T21:14:53.979Z,95.00
2018-02-21T21:17:20.618Z,94.90
2018-02-21T21:19:48.352Z,94.70
2018-02-21T21:22:15.252Z,94.60
2018-02-21T21:24:42.888Z,95.10
2018-02-21T21:27:09.596Z,95.00
2018-02-21T21:29:36.369Z,94.60
2018-02-21T21:32:03.181Z,95.20
2018-02-21T21:34:29.808Z,95.80
2018-02-21T21:36:56.693Z,96.00
2018-02-21T21:39:23.659Z,95.60
2018-02-21T21:41:50.608Z,95.40
2018-02-21T21:44:17.635Z,95.60
2018-02-21T21:46:44.712Z,95.40
2018-02-21T21:49:11.789Z,94.70
2018-02-21T21:51:39.521Z,94.90
2018-02-21T21:54:06.239Z,94.90
2018-02-21T21:56:33.389Z,95.20
2018-02-21T21:59:00.208Z,94.90
2018-02-21T22:01:27.596Z,94.40
2018-02-21T22:03:54.650Z,94.30
2018-02-21T22:06:21.596Z,94.90
2018-02-21T22:08:48.247Z,95.50
2018-02-21T22:11:14.929Z,95.40
2018-02-21T22:13:43.215Z,95.00
2018-02-21T22:16:11.095Z,94.70
2018-02-21T22:18:38.194Z,94.20
2018-02-21T22:21:05.586Z,95.00
2018-02-21T22:23:32.249Z,95.00
2018-02-21T22:25:59.612Z,94.90
2018-02-21T22:28:28.131Z,94.80
2018-02-21T22:30:54.994Z,94.90
2018-02-21T22:33:23.134Z,94.60
2018-02-21T22:35:50.946Z,94.70
2018-02-21T22:38:18.289Z,94.70
2018-02-21T22:40:45.932Z,94.50
2018-02-21T22:43:15.247Z,94.40
2018-02-21T22:45:42.837Z,94.80
2018-02-21T22:48:10.271Z,94.30
2018-02-21T22:50:38.281Z,94.00
2018-02-21T22:53:05.365Z,94.20
2018-02-21T22:55:32.569Z,94.20
2018-02-21T22:58:00.397Z,94.90
2018-02-21T23:00:29.461Z,94.80
2018-02-21T23:02:56.576Z,94.90
2018-02-21T23:05:23.966Z,94.60
2018-02-21T23:07:51.549Z,94.50
2018-02-21T23:10:19.107Z,94.00
2018-02-21T23:12:46.185Z,94.40
2018-02-21T23:15:13.115Z,94.80
2018-02-21T23:17:40.962Z,94.80
2018-02-21T23:20:09.674Z,94.40
2018-02-21T23:22:37.769Z,94.50
2018-02-21T23:25:06.670Z,95.00
2018-02-21T23:27:34.584Z,94.90
2018-02-21T23:30:03.369Z,94.20
2018-02-21T23:32:31.606Z,93.60
2018-02-21T23:34:58.817Z,93.60
2018-02-21T23:37:25.641Z,93.80
2018-02-21T23:39:52.384Z,94.40
2018-02-21T23:42:19.458Z,94.00
2018-02-21T23:44:46.840Z,94.40
2018-02-21T23:47:14.902Z,94.40
2018-02-21T23:49:43.040Z,94.10
2018-02-21T23:52:11.419Z,94.00
2018-02-21T23:54:39.511Z,94.10
2018-02-21T23:57:07.950Z,94.70
2018-02-21T23:59:35.039Z,94.60
